Accueil
METAR-TAF:

METAR-TAF

Aéroports :

Aéroport Agen-La Garenne

Agen, France

latitude: 44-11N, longitude: 000-36E, altitude: 61 m

Observation

Le bulletin a été fait il y a 22 minutes, à 04:30 UTC
Vent 5 kt de ouest
Température 15°C
Humidité 100%
Pression 1020 hPa
Visibilité 10 km ou plus

METAR: LFBA 200430Z AUTO 27005KT 9999 BKN007/// OVC011/// ///CB 15/15 Q1020

Heure: 06:52 (04:52 UTC)

Prévision

Le bulletin a été fait il y a 14 heures et 52 minutes, à 14:00 UTC
Prévision valable du 19 à 15 UTC au 19 à 24 UTC
Vent 10 kt de ouest/sud-ouest
Visibilité 10 km ou plus
Nuages fragmentés à une hauteur de 3000 ft
Temporairement
du 19 à 15 UTC au 19 à 24 UTC
Visibilité: 3000 m
Nuages fragmentés à une hauteur de 2500 ft, Cumulus congestus.
averses de pluie

TAF: LFBA 191400Z 1915/1924 24010KT 9999 BKN030 TEMPO 1915/1924 3000 SHRA BKN025TCU

Observations et prévisions météorologiques de plus de 4000 aéroports (messages METAR et TAF).

Les stations disponibles sont représentées par des disques jaunes et rouges sur la carte.

Passer la souris dessus pour voir le nom de la station.

Cliquer dessus pour voir les observations et prévisions météorologiques.

Pour changer de carte: cliquez sur les boutons verts avec une croix noire pour zoomer, sur le bouton vert avec un tiret pour effectuer un zoom arrière, ou sur les flèches vertes pour les cartes adjacentes.


METAR-TAF: